createdAt,value
2018-07-31T00:00:32.883Z,70.2
2018-07-31T00:01:34.343Z,70.7
2018-07-31T00:02:35.746Z,70.6
2018-07-31T00:03:37.143Z,71.1
2018-07-31T00:04:38.531Z,71.1
2018-07-31T00:05:39.929Z,71.1
2018-07-31T00:06:41.326Z,71.9
2018-07-31T00:07:42.723Z,71.9
2018-07-31T00:08:44.115Z,71.9
2018-07-31T00:09:45.510Z,72.4
2018-07-31T00:10:46.914Z,72.2
2018-07-31T00:11:48.337Z,72.0
2018-07-31T00:12:49.772Z,72.2
2018-07-31T00:13:51.169Z,72.4
2018-07-31T00:14:52.560Z,72.5
2018-07-31T00:15:53.955Z,73.1
2018-07-31T00:16:55.354Z,73.4
2018-07-31T00:17:56.746Z,73.1
2018-07-31T00:18:58.141Z,73.2
2018-07-31T00:19:59.542Z,73.0
2018-07-31T00:21:00.943Z,72.8
2018-07-31T00:22:02.344Z,73.5
2018-07-31T00:23:03.738Z,73.9
2018-07-31T00:24:05.138Z,73.2
2018-07-31T00:25:06.532Z,73.5
2018-07-31T00:26:07.929Z,73.5
2018-07-31T00:27:09.325Z,73.5
2018-07-31T00:28:10.755Z,73.9
2018-07-31T00:29:12.194Z,74.4
2018-07-31T00:30:13.587Z,74.4
2018-07-31T00:31:14.984Z,74.5
2018-07-31T00:32:16.384Z,74.6
2018-07-31T00:33:17.778Z,74.4
2018-07-31T00:34:19.176Z,75.0
2018-07-31T00:35:20.570Z,74.9
2018-07-31T00:36:21.970Z,74.9
2018-07-31T00:37:23.385Z,74.7
2018-07-31T00:38:24.781Z,74.8
2018-07-31T00:39:26.185Z,75.5
2018-07-31T00:40:27.586Z,74.6
2018-07-31T00:41:28.989Z,74.9
2018-07-31T00:42:30.383Z,74.6
2018-07-31T00:43:31.784Z,75.0
2018-07-31T00:44:33.179Z,75.4
2018-07-31T00:45:34.583Z,75.0
2018-07-31T00:46:35.978Z,75.6
2018-07-31T00:47:37.381Z,75.1
2018-07-31T00:48:38.769Z,74.9
2018-07-31T00:49:40.169Z,74.6
2018-07-31T00:50:41.565Z,74.5
2018-07-31T00:51:42.962Z,75.5
2018-07-31T00:52:44.359Z,75.8
2018-07-31T00:53:45.756Z,75.2
2018-07-31T00:54:47.155Z,76.0
2018-07-31T00:55:48.548Z,76.4
2018-07-31T00:56:49.945Z,75.7
2018-07-31T00:57:51.342Z,76.1
2018-07-31T00:58:52.735Z,76.1
2018-07-31T00:59:54.130Z,76.0
2018-07-31T01:00:55.524Z,75.9
2018-07-31T01:01:56.925Z,76.0
2018-07-31T01:02:58.321Z,76.2
2018-07-31T01:03:59.720Z,76.8
2018-07-31T01:05:01.123Z,76.5
2018-07-31T01:06:02.514Z,76.8
2018-07-31T01:07:03.904Z,77.5
2018-07-31T01:08:05.431Z,77.9
2018-07-31T01:09:06.875Z,77.1
2018-07-31T01:10:08.273Z,77.8
2018-07-31T01:11:09.669Z,78.3
2018-07-31T01:12:11.069Z,78.5
2018-07-31T01:13:12.463Z,78.0
2018-07-31T01:14:13.854Z,78.2
2018-07-31T01:15:15.250Z,78.0
2018-07-31T01:16:16.651Z,78.2
2018-07-31T01:17:18.045Z,78.9
2018-07-31T01:18:19.447Z,78.3
2018-07-31T01:19:20.845Z,79.1
2018-07-31T01:20:22.246Z,78.4
2018-07-31T01:21:23.644Z,78.7
2018-07-31T01:22:25.031Z,78.8
2018-07-31T01:23:26.424Z,79.7
2018-07-31T01:24:27.818Z,78.8
2018-07-31T01:25:29.215Z,79.5
2018-07-31T01:26:30.610Z,79.7
2018-07-31T01:27:32.002Z,79.5
2018-07-31T01:28:33.394Z,79.3
2018-07-31T01:29:34.792Z,79.2
2018-07-31T01:30:36.189Z,79.2
2018-07-31T01:31:37.586Z,79.9
2018-07-31T01:32:38.982Z,79.6
2018-07-31T01:33:40.377Z,79.8
2018-07-31T01:34:41.778Z,79.7
2018-07-31T01:35:43.173Z,80.4
2018-07-31T01:36:44.570Z,80.3
2018-07-31T01:37:45.964Z,80.6
2018-07-31T01:38:47.355Z,80.9
2018-07-31T01:39:48.750Z,81.0
2018-07-31T01:40:50.151Z,81.5
2018-07-31T01:41:51.543Z,81.8
2018-07-31T01:42:52.937Z,81.3
2018-07-31T01:43:54.329Z,82.4
2018-07-31T01:44:55.721Z,82.6
2018-07-31T01:45:57.209Z,82.2
2018-07-31T01:46:58.562Z,82.1
2018-07-31T01:47:59.953Z,82.7
2018-07-31T01:49:01.385Z,82.1
2018-07-31T01:50:02.785Z,82.6
2018-07-31T01:51:04.179Z,82.5
2018-07-31T01:52:05.584Z,82.5
2018-07-31T01:53:06.976Z,82.8
2018-07-31T01:54:08.369Z,83.2
2018-07-31T01:55:09.767Z,83.1
2018-07-31T01:56:11.161Z,83.5
2018-07-31T01:57:12.562Z,82.7
2018-07-31T01:58:13.955Z,83.4
2018-07-31T01:59:15.353Z,82.8
2018-07-31T02:00:16.747Z,82.8
2018-07-31T02:01:18.146Z,82.6
2018-07-31T02:02:19.544Z,83.2
2018-07-31T02:03:20.935Z,83.1
2018-07-31T02:04:22.328Z,83.6
2018-07-31T02:05:23.728Z,83.6
2018-07-31T02:06:25.123Z,83.4
2018-07-31T02:07:26.526Z,83.5
2018-07-31T02:08:27.916Z,83.8
2018-07-31T02:09:29.332Z,84.0
2018-07-31T02:10:30.728Z,84.0
2018-07-31T02:11:32.126Z,84.0
2018-07-31T02:12:33.523Z,84.1
2018-07-31T02:13:34.916Z,83.9
2018-07-31T02:14:36.313Z,84.1
2018-07-31T02:15:37.710Z,84.4
2018-07-31T02:16:39.109Z,84.0
2018-07-31T02:17:40.504Z,83.9
2018-07-31T02:18:41.901Z,84.0
2018-07-31T02:19:43.296Z,83.8
2018-07-31T02:20:44.688Z,83.2
2018-07-31T02:21:46.082Z,83.8
2018-07-31T02:22:47.480Z,83.8
2018-07-31T02:23:48.883Z,84.2
2018-07-31T02:24:50.281Z,84.0
2018-07-31T02:25:51.673Z,84.2
2018-07-31T02:26:53.063Z,84.2
2018-07-31T02:27:54.510Z,84.4
2018-07-31T02:28:56.010Z,84.3
2018-07-31T02:29:57.413Z,84.4
2018-07-31T02:30:58.810Z,84.7
2018-07-31T02:32:00.206Z,84.5
2018-07-31T02:33:01.597Z,84.5
2018-07-31T02:34:02.991Z,84.5
2018-07-31T02:35:04.385Z,84.4
2018-07-31T02:36:05.791Z,85.1
2018-07-31T02:37:07.175Z,84.9
2018-07-31T02:38:08.574Z,85.3
2018-07-31T02:39:10.005Z,85.3
2018-07-31T02:40:11.406Z,85.9
2018-07-31T02:41:12.802Z,86.0
2018-07-31T02:42:14.200Z,85.9
2018-07-31T02:43:15.623Z,85.8
2018-07-31T02:44:17.008Z,85.8
2018-07-31T02:45:18.405Z,85.9
2018-07-31T02:46:19.799Z,85.7
2018-07-31T02:47:21.176Z,86.0
2018-07-31T02:48:22.569Z,85.9
2018-07-31T02:49:23.967Z,86.3
2018-07-31T02:50:25.362Z,86.2
2018-07-31T02:51:26.756Z,85.9
2018-07-31T02:52:28.152Z,85.9
2018-07-31T02:53:29.547Z,86.1
2018-07-31T02:54:30.937Z,85.9
2018-07-31T02:55:32.339Z,85.7
2018-07-31T02:56:33.727Z,85.8
2018-07-31T02:57:35.124Z,85.4
2018-07-31T02:58:36.520Z,85.3
2018-07-31T02:59:37.916Z,86.2
2018-07-31T03:00:39.319Z,85.9
2018-07-31T03:01:40.716Z,86.2
2018-07-31T03:02:42.109Z,85.5
2018-07-31T03:03:43.501Z,86.0
2018-07-31T03:04:44.900Z,85.7
2018-07-31T03:05:46.296Z,86.4
2018-07-31T03:06:47.693Z,85.8
2018-07-31T03:07:49.096Z,86.1
2018-07-31T03:08:50.542Z,86.0
2018-07-31T03:09:51.990Z,86.2
2018-07-31T03:10:53.390Z,85.7
2018-07-31T03:11:54.780Z,85.3
2018-07-31T03:12:56.182Z,85.6
2018-07-31T03:13:57.575Z,85.1
2018-07-31T03:14:58.973Z,84.9
2018-07-31T03:16:00.374Z,85.1
2018-07-31T03:17:01.769Z,84.9
2018-07-31T03:18:03.165Z,84.5
2018-07-31T03:19:04.564Z,84.6
2018-07-31T03:20:05.960Z,85.1
2018-07-31T03:21:07.358Z,84.6
2018-07-31T03:22:08.752Z,84.7
2018-07-31T03:23:10.145Z,84.5
2018-07-31T03:24:11.536Z,84.5
2018-07-31T03:25:12.932Z,85.1
2018-07-31T03:26:14.330Z,85.4
2018-07-31T03:27:15.730Z,85.1
2018-07-31T03:28:17.186Z,85.2
2018-07-31T03:29:18.531Z,85.0
2018-07-31T03:30:19.985Z,85.4
2018-07-31T03:31:21.356Z,85.1
2018-07-31T03:32:22.749Z,85.0
2018-07-31T03:33:24.146Z,85.1
2018-07-31T03:34:25.542Z,85.0
2018-07-31T03:35:26.948Z,85.4
2018-07-31T03:36:28.347Z,85.2
2018-07-31T03:37:29.738Z,85.1
2018-07-31T03:38:31.160Z,85.7
2018-07-31T03:39:32.554Z,85.7
2018-07-31T03:40:33.944Z,85.1
2018-07-31T03:41:35.342Z,85.0
2018-07-31T03:42:36.755Z,84.7
2018-07-31T03:43:38.149Z,84.3
2018-07-31T03:44:39.544Z,84.1
2018-07-31T03:45:40.947Z,84.3
2018-07-31T03:46:42.341Z,84.7
2018-07-31T03:47:43.738Z,84.3
2018-07-31T03:48:45.131Z,84.4
2018-07-31T03:49:46.697Z,84.6
2018-07-31T03:50:48.089Z,84.0
2018-07-31T03:51:49.507Z,84.4
2018-07-31T03:52:50.946Z,84.3
2018-07-31T03:53:52.699Z,84.2
2018-07-31T03:54:54.283Z,84.4
2018-07-31T03:55:56.055Z,84.4
2018-07-31T03:56:57.448Z,84.6
2018-07-31T03:57:58.845Z,84.7
2018-07-31T03:59:00.300Z,84.6
2018-07-31T04:00:01.705Z,84.6
2018-07-31T04:01:03.114Z,84.6
2018-07-31T04:02:04.529Z,84.6
2018-07-31T04:03:05.935Z,84.7
2018-07-31T04:04:07.336Z,84.6
2018-07-31T04:05:08.729Z,84.7
2018-07-31T04:06:10.158Z,84.6
2018-07-31T04:07:11.602Z,83.6
2018-07-31T04:08:13.001Z,84.7
2018-07-31T04:09:14.444Z,84.7
2018-07-31T04:10:15.876Z,84.6
2018-07-31T04:11:17.300Z,84.8
2018-07-31T04:12:18.697Z,84.6
2018-07-31T04:13:20.098Z,84.5
2018-07-31T04:14:21.500Z,84.3
2018-07-31T04:15:22.898Z,85.3
2018-07-31T04:16:24.293Z,85.0
2018-07-31T04:17:25.690Z,84.9
2018-07-31T04:18:27.087Z,84.3
2018-07-31T04:19:28.484Z,84.7
2018-07-31T04:20:29.881Z,84.7
2018-07-31T04:21:31.282Z,85.0
2018-07-31T04:22:32.685Z,85.1
2018-07-31T04:23:34.081Z,85.2
2018-07-31T04:24:35.481Z,84.7
2018-07-31T04:25:36.881Z,85.6
2018-07-31T04:26:38.275Z,85.6
2018-07-31T04:27:39.740Z,86.0
2018-07-31T04:28:41.154Z,85.5
2018-07-31T04:29:42.558Z,85.5
2018-07-31T04:30:43.960Z,85.0
2018-07-31T04:31:45.361Z,85.0
2018-07-31T04:32:46.770Z,85.5
2018-07-31T04:33:48.170Z,85.6
2018-07-31T04:34:49.572Z,85.8
2018-07-31T04:35:50.985Z,85.3
2018-07-31T04:36:52.371Z,84.8
2018-07-31T04:37:53.769Z,84.8
2018-07-31T04:38:55.168Z,85.0
2018-07-31T04:39:56.566Z,84.7
2018-07-31T04:40:57.969Z,84.3
2018-07-31T04:41:59.367Z,84.3
2018-07-31T04:43:00.810Z,84.4
2018-07-31T04:44:02.215Z,84.2
2018-07-31T04:45:03.604Z,84.4
2018-07-31T04:46:05.002Z,84.6
2018-07-31T04:47:06.402Z,84.3
2018-07-31T04:48:07.799Z,84.5
2018-07-31T04:49:09.201Z,84.6
2018-07-31T04:50:10.603Z,85.3
2018-07-31T04:51:12.006Z,85.2
2018-07-31T04:52:13.399Z,85.7
2018-07-31T04:53:14.798Z,85.1
2018-07-31T04:54:16.198Z,85.2
2018-07-31T04:55:17.591Z,84.5
2018-07-31T04:56:18.990Z,84.4
2018-07-31T04:57:20.390Z,84.3
2018-07-31T04:58:21.791Z,85.0
2018-07-31T04:59:23.186Z,84.5
2018-07-31T05:00:24.584Z,84.3
2018-07-31T05:01:25.983Z,84.4
2018-07-31T05:02:27.382Z,84.5
2018-07-31T05:03:28.782Z,84.0
2018-07-31T05:04:30.243Z,83.8
2018-07-31T05:05:31.572Z,83.1
2018-07-31T05:06:32.972Z,83.5
2018-07-31T05:07:34.367Z,83.7
2018-07-31T05:08:35.848Z,83.6
2018-07-31T05:09:37.243Z,83.8
2018-07-31T05:10:38.636Z,84.4
2018-07-31T05:11:40.037Z,84.4
2018-07-31T05:12:41.435Z,84.8
2018-07-31T05:13:42.833Z,85.1
2018-07-31T05:14:44.248Z,84.4
2018-07-31T05:15:45.652Z,84.6
2018-07-31T05:16:47.063Z,84.3
2018-07-31T05:17:48.451Z,84.3
2018-07-31T05:18:49.853Z,84.0
2018-07-31T05:19:51.251Z,83.8
2018-07-31T05:20:52.710Z,84.4
2018-07-31T05:21:54.113Z,82.9
2018-07-31T05:22:55.511Z,82.8
2018-07-31T05:23:56.949Z,82.1
2018-07-31T05:24:58.353Z,83.1
2018-07-31T05:25:59.753Z,82.1
2018-07-31T05:27:01.150Z,82.9
2018-07-31T05:28:02.551Z,82.6
2018-07-31T05:29:03.954Z,82.4
2018-07-31T05:30:05.350Z,82.9
2018-07-31T05:31:06.744Z,82.4
2018-07-31T05:32:08.144Z,82.3
2018-07-31T05:33:09.541Z,82.3
2018-07-31T05:34:10.943Z,81.9
2018-07-31T05:35:12.343Z,82.5
2018-07-31T05:36:13.743Z,82.4
2018-07-31T05:37:15.146Z,82.3
2018-07-31T05:38:16.544Z,82.1
2018-07-31T05:39:17.943Z,82.2
2018-07-31T05:40:19.340Z,81.2
2018-07-31T05:41:20.741Z,81.0
2018-07-31T05:42:22.140Z,80.9
2018-07-31T05:43:23.543Z,80.4
2018-07-31T05:44:24.942Z,80.1
2018-07-31T05:45:26.335Z,79.8
2018-07-31T05:46:27.735Z,80.1
2018-07-31T05:47:29.155Z,79.6
2018-07-31T05:48:30.644Z,80.3
2018-07-31T05:49:32.048Z,80.9
2018-07-31T05:50:33.448Z,80.4
2018-07-31T05:51:34.845Z,81.1
2018-07-31T05:52:36.248Z,81.4
2018-07-31T05:53:37.643Z,81.2
2018-07-31T05:54:39.040Z,81.4
2018-07-31T05:55:40.442Z,81.2
2018-07-31T05:56:41.841Z,81.4
2018-07-31T05:57:43.248Z,81.9
2018-07-31T05:58:44.637Z,81.6
2018-07-31T05:59:46.037Z,82.0
2018-07-31T06:00:47.426Z,81.3
2018-07-31T06:01:48.834Z,81.2
2018-07-31T06:02:50.228Z,81.2
2018-07-31T06:03:51.627Z,81.2
2018-07-31T06:04:53.025Z,81.1
2018-07-31T06:05:54.422Z,81.3
2018-07-31T06:06:55.822Z,81.5
2018-07-31T06:07:57.219Z,81.3
2018-07-31T06:08:58.637Z,80.6
2018-07-31T06:10:00.040Z,81.1
2018-07-31T06:11:01.436Z,81.7
2018-07-31T06:12:02.843Z,81.4
2018-07-31T06:13:04.238Z,81.6
2018-07-31T06:14:05.644Z,81.9
2018-07-31T06:15:07.047Z,81.1
2018-07-31T06:16:08.424Z,81.4
2018-07-31T06:17:09.828Z,81.4
2018-07-31T06:18:11.236Z,81.4
2018-07-31T06:19:12.637Z,81.3
2018-07-31T06:20:14.039Z,81.5
2018-07-31T06:21:15.435Z,81.1
2018-07-31T06:22:16.833Z,81.4
2018-07-31T06:23:18.234Z,80.6
2018-07-31T06:24:19.636Z,80.7
2018-07-31T06:25:21.035Z,80.5
2018-07-31T06:26:22.435Z,80.2
2018-07-31T06:27:23.832Z,80.6
2018-07-31T06:28:25.342Z,81.2
2018-07-31T06:29:26.752Z,80.9
2018-07-31T06:30:28.151Z,80.7
2018-07-31T06:31:29.550Z,80.1
2018-07-31T06:32:30.951Z,79.5
2018-07-31T06:33:32.345Z,79.4
2018-07-31T06:34:33.760Z,79.9
2018-07-31T06:35:35.138Z,79.5
2018-07-31T06:36:36.538Z,79.6
2018-07-31T06:37:37.932Z,79.5
2018-07-31T06:38:39.328Z,79.8
2018-07-31T06:39:40.725Z,80.0
2018-07-31T06:40:42.127Z,80.1
2018-07-31T06:41:43.529Z,80.5
2018-07-31T06:42:44.928Z,80.5
2018-07-31T06:43:46.326Z,80.5
2018-07-31T06:44:47.727Z,81.0
2018-07-31T06:45:49.128Z,80.3
2018-07-31T06:46:50.527Z,80.3
2018-07-31T06:47:51.929Z,81.2
2018-07-31T06:48:53.336Z,81.0
2018-07-31T06:49:54.728Z,81.5
2018-07-31T06:50:56.127Z,80.9
2018-07-31T06:51:57.532Z,81.3
2018-07-31T06:52:58.929Z,81.3
2018-07-31T06:54:00.332Z,80.8
2018-07-31T06:55:01.731Z,80.4
2018-07-31T06:56:03.137Z,80.3
2018-07-31T06:57:04.534Z,79.8
2018-07-31T06:58:05.935Z,79.4
2018-07-31T06:59:07.337Z,79.4
2018-07-31T07:00:08.739Z,78.8
2018-07-31T07:01:10.145Z,78.2
2018-07-31T07:02:11.551Z,78.0
2018-07-31T07:03:12.946Z,77.4
2018-07-31T07:04:14.344Z,76.9
2018-07-31T07:05:15.741Z,76.9
2018-07-31T07:06:17.140Z,76.6
2018-07-31T07:07:18.537Z,76.9
2018-07-31T07:08:20.045Z,75.9
2018-07-31T07:09:21.515Z,75.6
2018-07-31T07:10:22.851Z,74.7
2018-07-31T07:11:24.251Z,73.7
2018-07-31T07:12:25.655Z,74.1
2018-07-31T07:13:27.059Z,73.8
2018-07-31T07:14:28.463Z,73.4
2018-07-31T07:15:29.879Z,72.4
2018-07-31T07:16:31.263Z,72.5
2018-07-31T07:17:32.666Z,71.5
2018-07-31T07:18:34.067Z,71.8
2018-07-31T07:19:35.471Z,70.8
2018-07-31T07:20:36.872Z,70.2
2018-07-31T07:21:38.275Z,69.0
2018-07-31T07:22:39.716Z,69.5
2018-07-31T07:23:41.087Z,68.6
2018-07-31T07:24:42.489Z,68.7
2018-07-31T07:25:43.887Z,67.1
2018-07-31T07:26:45.288Z,67.3
2018-07-31T07:27:46.694Z,68.1
2018-07-31T07:28:48.116Z,66.5
2018-07-31T07:29:49.496Z,65.3
2018-07-31T07:30:50.903Z,65.3
2018-07-31T07:31:52.306Z,65.4
2018-07-31T07:32:53.710Z,65.6
2018-07-31T07:33:55.177Z,65.3
2018-07-31T07:34:56.513Z,64.5
2018-07-31T07:35:57.912Z,64.1
2018-07-31T07:36:59.317Z,63.8
2018-07-31T07:38:00.724Z,63.3
2018-07-31T07:39:02.125Z,63.1
2018-07-31T07:40:03.542Z,63.3
2018-07-31T07:41:04.941Z,62.8
2018-07-31T07:42:06.347Z,62.3
2018-07-31T07:43:07.759Z,61.6
2018-07-31T07:44:09.168Z,61.9
2018-07-31T07:45:10.571Z,61.4
2018-07-31T07:46:11.972Z,61.4
2018-07-31T07:47:13.373Z,61.7
2018-07-31T07:48:14.864Z,62.2
2018-07-31T07:49:16.307Z,61.8
2018-07-31T07:50:17.707Z,62.0
2018-07-31T07:51:20.907Z,61.5
2018-07-31T07:52:22.379Z,60.7
2018-07-31T07:53:23.784Z,60.1
2018-07-31T07:54:25.191Z,59.9
2018-07-31T07:55:26.600Z,60.2
2018-07-31T07:56:27.993Z,60.1
2018-07-31T07:57:29.394Z,61.0
2018-07-31T07:58:30.795Z,60.2
2018-07-31T07:59:32.201Z,59.9
2018-07-31T08:00:33.607Z,59.7
2018-07-31T08:01:35.005Z,59.5
2018-07-31T08:02:36.408Z,59.9
2018-07-31T08:03:37.857Z,59.9
2018-07-31T08:04:39.211Z,60.9
2018-07-31T08:05:40.619Z,60.3
2018-07-31T08:06:42.013Z,59.7
2018-07-31T08:07:43.420Z,59.5
2018-07-31T08:08:44.873Z,59.4
2018-07-31T08:09:46.314Z,59.5
2018-07-31T08:10:47.678Z,58.7
2018-07-31T08:11:49.080Z,59.3
2018-07-31T08:12:50.481Z,58.5
2018-07-31T08:13:51.884Z,58.2
2018-07-31T08:14:53.315Z,58.9
2018-07-31T08:15:54.686Z,57.9
2018-07-31T08:16:56.086Z,57.3
2018-07-31T08:17:57.491Z,57.5
2018-07-31T08:18:58.910Z,56.9
2018-07-31T08:20:00.315Z,56.7
2018-07-31T08:21:01.734Z,56.7
2018-07-31T08:22:03.141Z,55.7
2018-07-31T08:23:04.543Z,55.3
2018-07-31T08:24:05.947Z,55.0
2018-07-31T08:25:07.667Z,54.6
2018-07-31T08:26:09.080Z,54.3
2018-07-31T08:27:10.483Z,54.9
2018-07-31T08:28:11.886Z,54.9
2018-07-31T08:29:13.291Z,53.6
2018-07-31T08:30:14.694Z,53.4
2018-07-31T08:31:16.101Z,52.1
2018-07-31T08:32:17.506Z,52.0
2018-07-31T08:33:18.906Z,51.9
2018-07-31T08:34:20.332Z,51.9
2018-07-31T08:35:21.713Z,51.8
2018-07-31T08:36:23.123Z,51.8
2018-07-31T08:37:24.529Z,50.6
2018-07-31T08:38:25.934Z,51.2
2018-07-31T08:39:27.333Z,51.8
2018-07-31T08:40:28.734Z,50.3
2018-07-31T08:41:30.148Z,50.6
2018-07-31T08:42:31.551Z,51.6
2018-07-31T08:43:32.958Z,50.7
2018-07-31T08:44:34.365Z,51.2
2018-07-31T08:45:35.766Z,51.5
2018-07-31T08:46:37.170Z,50.7
2018-07-31T08:47:38.572Z,50.5
2018-07-31T08:48:39.986Z,50.5
2018-07-31T08:49:41.390Z,49.2
2018-07-31T08:50:42.808Z,48.9
2018-07-31T08:51:44.212Z,49.2
2018-07-31T08:52:45.616Z,49.5
2018-07-31T08:53:47.024Z,49.0
2018-07-31T08:54:48.423Z,47.8
2018-07-31T08:55:49.886Z,47.8
2018-07-31T08:56:51.272Z,47.8
2018-07-31T08:57:52.628Z,47.4
2018-07-31T08:58:54.026Z,47.5
2018-07-31T08:59:55.432Z,48.2
2018-07-31T09:00:56.832Z,47.3
2018-07-31T09:01:58.247Z,47.4
2018-07-31T09:02:59.665Z,47.7
2018-07-31T09:04:01.072Z,47.0
2018-07-31T09:05:02.531Z,46.9
2018-07-31T09:06:03.937Z,46.7
2018-07-31T09:07:05.338Z,47.6
2018-07-31T09:08:06.811Z,47.6
2018-07-31T09:09:08.152Z,47.9
2018-07-31T09:10:10.272Z,47.7
2018-07-31T09:11:11.679Z,47.0
2018-07-31T09:12:13.087Z,47.1
2018-07-31T09:13:14.488Z,47.1
2018-07-31T09:14:16.020Z,47.6
2018-07-31T09:15:17.425Z,48.0
2018-07-31T09:16:18.831Z,47.9
2018-07-31T09:17:20.235Z,48.3
2018-07-31T09:18:21.637Z,48.3
2018-07-31T09:19:23.042Z,48.6
2018-07-31T09:20:24.896Z,49.3
2018-07-31T09:21:26.276Z,48.9
2018-07-31T09:22:27.788Z,49.2
2018-07-31T09:23:29.300Z,48.1
2018-07-31T09:24:30.742Z,48.4
2018-07-31T09:25:32.136Z,48.5
2018-07-31T09:26:33.546Z,49.5
2018-07-31T09:27:34.944Z,49.1
2018-07-31T09:28:36.347Z,48.9
2018-07-31T09:29:37.793Z,48.8
2018-07-31T09:30:39.273Z,48.9
2018-07-31T09:31:40.610Z,49.1
2018-07-31T09:32:42.014Z,49.1
2018-07-31T09:33:43.422Z,49.3
2018-07-31T09:34:44.834Z,49.0
2018-07-31T09:35:46.228Z,48.4
2018-07-31T09:36:47.630Z,48.9
2018-07-31T09:37:49.032Z,48.3
2018-07-31T09:38:50.440Z,48.1
2018-07-31T09:39:51.844Z,48.7
2018-07-31T09:40:53.248Z,49.2
2018-07-31T09:41:54.732Z,48.6
2018-07-31T09:42:56.133Z,49.1
2018-07-31T09:43:57.537Z,49.6
2018-07-31T09:44:58.939Z,49.6
2018-07-31T09:46:00.349Z,49.4
2018-07-31T09:47:01.752Z,48.7
2018-07-31T09:48:03.165Z,49.2
2018-07-31T09:49:04.561Z,48.9
2018-07-31T09:50:05.967Z,48.6
2018-07-31T09:51:07.362Z,48.2
2018-07-31T09:52:08.818Z,47.7
2018-07-31T09:53:10.213Z,47.7
2018-07-31T09:54:11.615Z,46.4
2018-07-31T09:55:13.023Z,46.2
2018-07-31T09:56:14.472Z,47.0
2018-07-31T09:57:15.943Z,47.9
2018-07-31T09:58:17.275Z,47.7
2018-07-31T09:59:18.686Z,47.7
2018-07-31T10:00:20.090Z,47.1
2018-07-31T10:01:21.492Z,47.2
2018-07-31T10:02:22.900Z,47.1
2018-07-31T10:03:24.316Z,47.3
2018-07-31T10:04:25.721Z,47.9
2018-07-31T10:05:27.121Z,47.9
2018-07-31T10:06:28.524Z,47.9
2018-07-31T10:07:29.928Z,48.0
2018-07-31T10:08:31.335Z,47.3
2018-07-31T10:09:32.740Z,47.6
2018-07-31T10:10:34.141Z,46.7
2018-07-31T10:11:35.542Z,46.9
2018-07-31T10:12:36.944Z,47.2
2018-07-31T10:13:38.349Z,47.2
2018-07-31T10:14:39.755Z,47.4
2018-07-31T10:15:41.162Z,46.8
2018-07-31T10:16:42.573Z,47.0
2018-07-31T10:17:44.047Z,46.9
2018-07-31T10:18:45.378Z,46.9
2018-07-31T10:19:46.783Z,45.3
2018-07-31T10:20:48.247Z,45.0
2018-07-31T10:21:49.663Z,45.2
2018-07-31T10:22:52.124Z,44.8
2018-07-31T10:23:53.542Z,44.1
2018-07-31T10:24:54.956Z,43.7
2018-07-31T10:25:56.358Z,44.1
2018-07-31T10:26:57.771Z,44.0
2018-07-31T10:27:59.176Z,43.8
2018-07-31T10:29:00.658Z,43.1
2018-07-31T10:30:02.068Z,42.9
2018-07-31T10:31:03.547Z,44.0
2018-07-31T10:32:04.834Z,43.1
2018-07-31T10:33:06.239Z,43.1
2018-07-31T10:34:07.639Z,42.1
2018-07-31T10:35:09.042Z,42.0
2018-07-31T10:36:10.455Z,41.4
2018-07-31T10:37:11.861Z,41.4
2018-07-31T10:38:13.265Z,41.5
2018-07-31T10:39:14.678Z,42.1
2018-07-31T10:40:16.077Z,42.9
2018-07-31T10:41:17.479Z,42.4
2018-07-31T10:42:18.886Z,42.0
2018-07-31T10:43:20.291Z,43.0
2018-07-31T10:44:21.702Z,43.8
2018-07-31T10:45:23.114Z,44.2
2018-07-31T10:46:24.522Z,44.0
2018-07-31T10:47:25.926Z,44.8
2018-07-31T10:48:27.334Z,44.4
2018-07-31T10:49:28.742Z,44.8
2018-07-31T10:50:30.194Z,44.8
2018-07-31T10:51:31.553Z,45.2
2018-07-31T10:52:32.961Z,45.3
2018-07-31T10:53:34.381Z,45.2
2018-07-31T10:54:35.773Z,44.7
2018-07-31T10:55:37.178Z,44.8
2018-07-31T10:56:38.591Z,43.9
2018-07-31T10:57:40.052Z,44.0
2018-07-31T10:58:41.562Z,44.0
2018-07-31T10:59:43.012Z,43.7
2018-07-31T11:00:44.298Z,43.1
2018-07-31T11:01:45.706Z,42.9
2018-07-31T11:02:47.123Z,43.0
2018-07-31T11:03:48.546Z,42.4
2018-07-31T11:04:49.924Z,42.3
2018-07-31T11:05:51.329Z,43.1
2018-07-31T11:06:52.738Z,43.7
2018-07-31T11:07:54.143Z,43.5
2018-07-31T11:08:55.547Z,44.1
2018-07-31T11:09:56.956Z,42.4
2018-07-31T11:10:58.366Z,42.1
2018-07-31T11:11:59.781Z,41.5
2018-07-31T11:13:01.185Z,40.5
2018-07-31T11:14:02.609Z,41.3
2018-07-31T11:15:04.038Z,41.4
2018-07-31T11:16:05.452Z,41.3
2018-07-31T11:17:06.896Z,41.2
2018-07-31T11:18:08.309Z,41.8
2018-07-31T11:19:09.724Z,41.8
2018-07-31T11:20:11.157Z,41.5
2018-07-31T11:21:12.596Z,41.9
2018-07-31T11:22:13.955Z,41.4
2018-07-31T11:23:15.359Z,41.3
2018-07-31T11:24:16.773Z,41.7
2018-07-31T11:25:18.183Z,41.4
2018-07-31T11:26:19.632Z,41.7
2018-07-31T11:27:21.072Z,41.2
2018-07-31T11:28:22.450Z,40.5
2018-07-31T11:29:23.858Z,39.8
2018-07-31T11:30:25.268Z,40.0
2018-07-31T11:31:26.680Z,40.3
2018-07-31T11:32:28.085Z,40.5
2018-07-31T11:33:29.499Z,41.3
2018-07-31T11:34:30.913Z,41.9
2018-07-31T11:35:32.325Z,42.0
2018-07-31T11:36:33.843Z,41.7
2018-07-31T11:37:35.279Z,41.7
2018-07-31T11:38:36.695Z,41.2
2018-07-31T11:39:38.110Z,41.2
2018-07-31T11:40:39.528Z,41.6
2018-07-31T11:41:40.944Z,41.5
2018-07-31T11:42:42.355Z,41.5
2018-07-31T11:43:43.773Z,41.7
2018-07-31T11:44:45.182Z,41.3
2018-07-31T11:45:46.589Z,41.1
2018-07-31T11:46:48.000Z,40.5
2018-07-31T11:47:49.412Z,41.1
2018-07-31T11:48:50.855Z,41.7
2018-07-31T11:49:52.255Z,41.6
2018-07-31T11:50:53.650Z,40.7
2018-07-31T11:51:55.056Z,40.3
2018-07-31T11:52:56.467Z,40.0
2018-07-31T11:53:57.876Z,39.7
2018-07-31T11:54:59.287Z,40.3
2018-07-31T11:56:00.707Z,40.0
2018-07-31T11:57:02.124Z,39.6
2018-07-31T11:58:03.533Z,39.3
2018-07-31T11:59:04.942Z,39.6
2018-07-31T12:00:06.352Z,39.9
2018-07-31T12:01:07.759Z,39.2
2018-07-31T12:02:09.178Z,40.0
2018-07-31T12:03:10.588Z,39.8
2018-07-31T12:04:12.003Z,39.0
2018-07-31T12:05:13.405Z,38.8
2018-07-31T12:06:14.812Z,38.8
2018-07-31T12:07:16.217Z,38.3
2018-07-31T12:08:17.627Z,39.5
2018-07-31T12:09:19.037Z,40.2
2018-07-31T12:10:20.456Z,41.1
2018-07-31T12:11:21.853Z,41.0
2018-07-31T12:12:23.256Z,40.9
2018-07-31T12:13:24.667Z,40.4
2018-07-31T12:14:26.086Z,39.8
2018-07-31T12:15:27.530Z,39.1
2018-07-31T12:16:28.938Z,38.5
2018-07-31T12:17:30.352Z,38.5
2018-07-31T12:18:31.757Z,38.6
2018-07-31T12:19:33.176Z,39.2
2018-07-31T12:20:34.585Z,39.6
2018-07-31T12:21:35.996Z,40.0
2018-07-31T12:22:37.406Z,39.6
2018-07-31T12:23:38.818Z,39.6
2018-07-31T12:24:40.225Z,39.8
2018-07-31T12:25:41.630Z,39.9
2018-07-31T12:26:43.047Z,40.1
2018-07-31T12:27:44.457Z,39.5
2018-07-31T12:28:45.865Z,39.2
2018-07-31T12:29:47.272Z,40.0
2018-07-31T12:30:48.681Z,38.9
2018-07-31T12:31:50.090Z,37.8
2018-07-31T12:32:51.577Z,34.9
2018-07-31T12:33:52.912Z,34.0
2018-07-31T12:34:54.324Z,34.5
2018-07-31T12:35:55.731Z,35.8
2018-07-31T12:36:57.136Z,35.8
2018-07-31T12:37:58.572Z,34.9
2018-07-31T12:38:59.985Z,35.7
2018-07-31T12:40:01.400Z,36.0
2018-07-31T12:41:02.805Z,35.5
2018-07-31T12:42:04.214Z,35.7
2018-07-31T12:43:05.626Z,35.9
2018-07-31T12:44:07.059Z,36.6
2018-07-31T12:45:08.445Z,37.0
2018-07-31T12:46:09.853Z,37.0
2018-07-31T12:47:11.263Z,35.9
2018-07-31T12:48:12.674Z,36.1
2018-07-31T12:49:14.086Z,35.5
2018-07-31T12:50:15.524Z,36.0
2018-07-31T12:51:16.900Z,35.9
2018-07-31T12:52:18.306Z,37.6
2018-07-31T12:53:19.718Z,37.5
2018-07-31T12:54:21.234Z,38.3
2018-07-31T12:55:22.655Z,38.2
2018-07-31T12:56:24.068Z,37.4
2018-07-31T12:57:25.477Z,37.1
2018-07-31T12:58:26.884Z,37.0
2018-07-31T12:59:28.297Z,36.8
2018-07-31T13:00:29.708Z,36.2
2018-07-31T13:01:31.118Z,35.2
2018-07-31T13:02:32.529Z,34.9
2018-07-31T13:03:33.940Z,34.9
2018-07-31T13:04:35.351Z,35.0
2018-07-31T13:05:36.763Z,34.9
2018-07-31T13:06:38.186Z,34.7
2018-07-31T13:07:39.583Z,34.2
2018-07-31T13:08:40.999Z,35.2
2018-07-31T13:09:42.409Z,34.4
2018-07-31T13:10:43.816Z,33.9
2018-07-31T13:11:45.228Z,33.9
2018-07-31T13:12:46.644Z,34.4
2018-07-31T13:13:48.049Z,34.3
2018-07-31T13:14:49.483Z,34.8
2018-07-31T13:15:50.895Z,34.8
2018-07-31T13:16:52.312Z,35.2
2018-07-31T13:17:53.717Z,35.0
2018-07-31T13:18:55.200Z,34.5
2018-07-31T13:19:56.565Z,34.6
2018-07-31T13:20:57.976Z,34.4
2018-07-31T13:21:59.393Z,33.2
2018-07-31T13:23:00.807Z,34.2
2018-07-31T13:24:02.214Z,33.3
2018-07-31T13:25:03.624Z,32.7
2018-07-31T13:26:05.034Z,33.1
2018-07-31T13:27:06.443Z,33.2
2018-07-31T13:28:07.856Z,33.0
2018-07-31T13:29:09.276Z,32.8
2018-07-31T13:30:10.686Z,33.4
2018-07-31T13:31:12.092Z,33.2
2018-07-31T13:32:13.501Z,33.0
2018-07-31T13:33:14.990Z,34.1
2018-07-31T13:34:16.423Z,34.4
2018-07-31T13:35:17.836Z,33.6
2018-07-31T13:36:19.247Z,34.0
2018-07-31T13:37:20.655Z,32.7